createdAt,value
2022-08-02T00:02:45.739Z,9.95
2022-08-02T00:05:35.243Z,7.03
2022-08-02T00:08:22.234Z,10.70
2022-08-02T00:11:07.394Z,12.48
2022-08-02T00:13:55.353Z,12.93
2022-08-02T00:16:40.966Z,15.52
2022-08-02T00:19:26.375Z,10.00
2022-08-02T00:22:12.535Z,7.57
2022-08-02T00:24:58.503Z,13.05
2022-08-02T00:27:43.837Z,5.93
2022-08-02T00:30:29.531Z,11.30
2022-08-02T00:33:15.140Z,12.40
2022-08-02T00:36:04.781Z,12.90
2022-08-02T00:38:50.957Z,13.30
2022-08-02T00:41:49.456Z,13.48
2022-08-02T00:44:36.911Z,14.40
2022-08-02T00:47:22.473Z,10.93
2022-08-02T00:50:08.291Z,10.50
2022-08-02T00:52:54.148Z,20.52
2022-08-02T00:55:40.117Z,11.55
2022-08-02T00:58:25.628Z,15.05
2022-08-02T01:01:10.981Z,12.02
2022-08-02T01:03:56.476Z,10.38
2022-08-02T01:06:48.928Z,10.90
2022-08-02T01:09:37.455Z,9.82
2022-08-02T01:12:22.928Z,9.07
2022-08-02T01:15:11.429Z,13.40
2022-08-02T01:18:02.792Z,10.65
2022-08-02T01:21:06.985Z,13.13
2022-08-02T01:23:58.787Z,7.20
2022-08-02T01:26:49.277Z,10.02
2022-08-02T01:29:53.605Z,12.93
2022-08-02T01:32:46.384Z,13.45
2022-08-02T01:35:47.367Z,16.85
2022-08-02T01:38:40.140Z,12.27
2022-08-02T01:41:28.122Z,15.82
2022-08-02T01:44:15.639Z,15.38
2022-08-02T01:47:11.055Z,11.73
2022-08-02T01:52:52.909Z,11.98
2022-08-02T01:55:57.507Z,9.50
2022-08-02T01:58:47.344Z,17.00
2022-08-02T02:01:36.740Z,18.92
2022-08-02T02:04:26.472Z,18.77
2022-08-02T02:07:15.834Z,16.15
2022-08-02T02:10:03.028Z,15.98
2022-08-02T02:12:51.278Z,18.83
2022-08-02T02:15:43.580Z,22.05
2022-08-02T02:18:30.648Z,18.33
2022-08-02T02:21:16.806Z,19.30
2022-08-02T02:24:02.911Z,10.68
2022-08-02T02:26:52.475Z,26.38
2022-08-02T02:29:42.189Z,17.65
2022-08-02T02:32:29.693Z,24.23
2022-08-02T02:35:17.901Z,17.55
2022-08-02T02:38:08.035Z,17.00
2022-08-02T02:40:54.408Z,19.02
2022-08-02T02:43:41.282Z,17.67
2022-08-02T02:46:30.088Z,12.82
2022-08-02T02:49:17.271Z,25.33
2022-08-02T02:52:05.532Z,11.35
2022-08-02T02:54:52.154Z,14.05
2022-08-02T02:57:39.649Z,15.30
2022-08-02T03:00:43.930Z,17.05
2022-08-02T03:03:30.086Z,17.77
2022-08-02T03:06:16.151Z,16.20
2022-08-02T03:09:01.896Z,12.35
2022-08-02T03:11:48.537Z,22.52
2022-08-02T03:14:34.745Z,14.63
2022-08-02T03:17:20.616Z,20.00
2022-08-02T03:20:11.406Z,17.00
2022-08-02T03:22:57.099Z,15.63
2022-08-02T03:25:42.716Z,22.27
2022-08-02T03:28:28.646Z,19.92
2022-08-02T03:31:14.486Z,13.63
2022-08-02T03:34:03.781Z,16.95
2022-08-02T03:36:52.257Z,14.52
2022-08-02T03:39:38.509Z,18.88
2022-08-02T03:42:40.449Z,17.42
2022-08-02T03:45:26.718Z,19.10
2022-08-02T03:48:33.999Z,17.80
2022-08-02T03:51:21.491Z,15.95
2022-08-02T03:54:07.356Z,24.40
2022-08-02T03:56:53.078Z,24.80
2022-08-02T03:59:43.363Z,18.05
2022-08-02T04:02:28.837Z,13.18
2022-08-02T04:05:14.971Z,15.70
2022-08-02T04:08:32.882Z,20.15
2022-08-02T04:11:25.645Z,17.20
2022-08-02T04:14:14.429Z,14.17
2022-08-02T04:17:04.541Z,18.20
2022-08-02T04:19:58.637Z,20.02
2022-08-02T04:23:06.590Z,15.18
2022-08-02T04:25:52.908Z,15.70
2022-08-02T04:28:40.257Z,26.70
2022-08-02T04:31:28.883Z,15.20
2022-08-02T04:34:15.918Z,17.65
2022-08-02T04:37:03.369Z,15.25
2022-08-02T04:39:49.002Z,19.33
2022-08-02T04:42:34.696Z,18.90
2022-08-02T04:45:21.881Z,14.15
2022-08-02T04:48:07.992Z,19.90
2022-08-02T04:50:53.390Z,17.08
2022-08-02T04:53:38.954Z,15.68
2022-08-02T04:56:27.390Z,17.83
2022-08-02T04:59:13.080Z,25.30
2022-08-02T05:01:58.385Z,14.23
2022-08-02T05:04:43.888Z,15.10
2022-08-02T05:07:29.344Z,19.02
2022-08-02T05:10:21.528Z,19.92
2022-08-02T05:13:07.074Z,25.38
2022-08-02T05:15:52.838Z,16.08
2022-08-02T05:18:41.379Z,14.30
2022-08-02T05:21:27.977Z,15.85
2022-08-02T05:24:13.833Z,19.13
2022-08-02T05:26:59.403Z,11.75
2022-08-02T05:29:53.124Z,14.82
2022-08-02T05:32:52.713Z,7.05
2022-08-02T05:35:38.245Z,12.77
2022-08-02T05:38:26.174Z,13.48
2022-08-02T05:41:14.313Z,20.73
2022-08-02T05:43:59.809Z,13.52
2022-08-02T05:46:45.490Z,10.05
2022-08-02T05:49:34.046Z,11.38
2022-08-02T05:52:20.480Z,11.30
2022-08-02T05:55:17.423Z,11.65
2022-08-02T05:58:20.558Z,11.65
2022-08-02T06:01:08.893Z,13.50
2022-08-02T06:03:57.548Z,13.57
2022-08-02T06:06:47.867Z,11.80
2022-08-02T06:09:33.658Z,10.02
2022-08-02T06:12:20.870Z,8.20
2022-08-02T06:15:07.637Z,11.18
2022-08-02T06:17:53.255Z,9.15
2022-08-02T06:20:39.005Z,11.68
2022-08-02T06:23:28.027Z,10.75
2022-08-02T06:26:15.425Z,12.77
2022-08-02T06:29:02.896Z,9.95
2022-08-02T06:31:49.515Z,11.75
2022-08-02T06:34:41.329Z,12.70
2022-08-02T06:37:29.787Z,11.80
2022-08-02T06:40:31.552Z,12.63
2022-08-02T06:43:27.354Z,8.63
2022-08-02T06:47:08.371Z,10.45
2022-08-02T06:49:20.491Z,6.65
2022-08-02T06:52:06.515Z,13.52
2022-08-02T06:54:57.906Z,9.25
2022-08-02T06:57:43.629Z,10.75
2022-08-02T07:00:30.268Z,7.55
2022-08-02T07:03:16.156Z,11.25
2022-08-02T07:06:01.602Z,11.57
2022-08-02T07:09:11.131Z,5.82
2022-08-02T07:11:54.194Z,9.50
2022-08-02T07:14:39.845Z,8.27
2022-08-02T07:17:25.761Z,9.90
2022-08-02T07:20:11.494Z,10.38
2022-08-02T07:22:56.810Z,6.97
2022-08-02T07:26:02.325Z,11.50
2022-08-02T07:28:49.706Z,11.02
2022-08-02T07:31:35.456Z,13.60
2022-08-02T07:34:21.078Z,6.88
2022-08-02T07:37:06.936Z,9.10
2022-08-02T07:39:55.521Z,8.77
2022-08-02T07:42:42.170Z,7.82
2022-08-02T07:45:28.414Z,8.95
2022-08-02T07:48:13.822Z,9.02
2022-08-02T07:50:59.269Z,13.65
2022-08-02T07:53:50.810Z,5.80
2022-08-02T07:56:37.677Z,8.55
2022-08-02T07:59:23.241Z,7.15
2022-08-02T08:02:09.406Z,8.70
2022-08-02T08:04:55.395Z,6.38
2022-08-02T08:07:41.010Z,6.53
2022-08-02T08:10:28.025Z,6.68
2022-08-02T08:13:13.954Z,4.28
2022-08-02T08:15:59.364Z,3.42
2022-08-02T08:18:44.893Z,4.45
2022-08-02T08:21:38.783Z,5.63
2022-08-02T08:24:29.548Z,4.35
2022-08-02T08:27:15.791Z,4.32
2022-08-02T08:30:05.864Z,4.40
2022-08-02T08:32:51.377Z,5.68
2022-08-02T08:35:36.986Z,8.15
2022-08-02T08:38:22.549Z,10.25
2022-08-02T08:41:09.431Z,8.68
2022-08-02T08:43:54.980Z,4.22
2022-08-02T08:46:44.697Z,4.55
2022-08-02T08:49:37.339Z,6.90
2022-08-02T08:53:03.473Z,2.97
2022-08-02T08:55:49.142Z,5.30
2022-08-02T08:58:34.865Z,6.05
2022-08-02T09:01:20.529Z,7.35
2022-08-02T09:04:09.119Z,3.95
2022-08-02T09:06:55.710Z,5.95
2022-08-02T09:09:41.214Z,6.28
2022-08-02T09:12:26.862Z,3.13
2022-08-02T09:15:15.923Z,5.13
2022-08-02T09:18:06.629Z,8.95
2022-08-02T09:20:57.564Z,2.65
2022-08-02T09:23:50.002Z,3.08
2022-08-02T09:26:37.046Z,3.67
2022-08-02T09:29:24.659Z,4.38
2022-08-02T09:32:10.768Z,8.40
2022-08-02T09:34:56.710Z,4.28
2022-08-02T09:37:45.725Z,3.50
2022-08-02T09:40:42.249Z,7.40
2022-08-02T09:43:38.578Z,8.27
2022-08-02T09:46:45.991Z,7.32
2022-08-02T09:49:33.641Z,5.03
2022-08-02T09:52:37.234Z,4.05
2022-08-02T09:55:29.614Z,5.72
2022-08-02T09:58:20.025Z,3.25
2022-08-02T10:01:06.179Z,7.15
2022-08-02T10:04:00.509Z,2.83
2022-08-02T10:06:47.292Z,3.50
2022-08-02T10:09:33.740Z,3.80
2022-08-02T10:12:23.596Z,9.43
2022-08-02T10:15:09.741Z,4.60
2022-08-02T10:17:55.131Z,7.47
2022-08-02T10:20:44.993Z,5.88
2022-08-02T10:23:36.460Z,8.55
2022-08-02T10:26:22.790Z,11.30
2022-08-02T10:29:15.370Z,6.47
2022-08-02T10:32:27.367Z,11.10
2022-08-02T10:35:25.236Z,6.30
2022-08-02T10:38:13.082Z,9.18
2022-08-02T10:40:58.395Z,8.65
2022-08-02T10:43:48.209Z,11.93
2022-08-02T10:46:35.978Z,10.57
2022-08-02T10:49:40.053Z,5.82
2022-08-02T10:52:30.650Z,6.95
2022-08-02T10:55:22.191Z,5.25
2022-08-02T10:58:29.567Z,6.82
2022-08-02T11:01:38.690Z,13.13
2022-08-02T11:04:25.897Z,4.75
2022-08-02T11:07:22.520Z,11.35
2022-08-02T11:10:46.591Z,7.95
2022-08-02T11:14:07.742Z,7.38
2022-08-02T11:16:56.363Z,8.02
2022-08-02T11:20:13.239Z,4.10
2022-08-02T11:23:44.046Z,6.53
2022-08-02T11:26:31.549Z,3.30
2022-08-02T11:29:17.666Z,6.53
2022-08-02T11:32:04.897Z,5.38
2022-08-02T11:34:52.744Z,5.00
2022-08-02T11:37:41.030Z,9.85
2022-08-02T11:40:38.112Z,5.93
2022-08-02T11:43:27.209Z,3.30
2022-08-02T11:46:14.533Z,5.15
2022-08-02T11:49:18.438Z,6.43
2022-08-02T11:52:10.904Z,8.57
2022-08-02T11:54:56.673Z,6.72
2022-08-02T11:58:04.139Z,7.75
2022-08-02T12:00:48.523Z,6.10
2022-08-02T12:03:39.014Z,6.35
2022-08-02T12:06:25.934Z,4.82
2022-08-02T12:09:18.818Z,4.13
2022-08-02T12:12:06.080Z,4.05
2022-08-02T12:14:52.414Z,5.63
2022-08-02T12:17:56.198Z,2.88
2022-08-02T12:20:41.763Z,2.95
2022-08-02T12:23:27.682Z,6.32
2022-08-02T12:26:16.266Z,3.70
2022-08-02T12:29:02.472Z,4.00
2022-08-02T12:31:56.702Z,5.03
2022-08-02T12:34:43.514Z,2.28
2022-08-02T12:37:29.116Z,3.13
2022-08-02T12:40:26.517Z,9.60
2022-08-02T12:43:21.205Z,5.60
2022-08-02T12:46:17.071Z,3.72
2022-08-02T12:49:19.053Z,4.65
2022-08-02T12:52:24.307Z,5.10
2022-08-02T12:55:25.877Z,3.40
2022-08-02T12:58:46.070Z,7.75
2022-08-02T13:01:32.121Z,6.00
2022-08-02T13:04:17.791Z,8.15
2022-08-02T13:07:05.353Z,6.22
2022-08-02T13:09:51.286Z,4.95
2022-08-02T13:12:49.486Z,6.47
2022-08-02T13:15:49.995Z,6.35
2022-08-02T13:18:36.871Z,4.75
2022-08-02T13:21:40.208Z,10.20
2022-08-02T13:24:40.641Z,7.57
2022-08-02T13:27:33.849Z,11.20
2022-08-02T13:30:20.392Z,9.43
2022-08-02T13:33:06.157Z,5.88
2022-08-02T13:35:51.682Z,6.03
2022-08-02T13:38:37.123Z,4.20
2022-08-02T13:41:25.946Z,10.13
2022-08-02T13:44:11.432Z,6.60
2022-08-02T13:46:57.360Z,11.88
2022-08-02T13:49:51.179Z,5.18
2022-08-02T13:52:37.635Z,6.28
2022-08-02T13:55:23.863Z,6.68
2022-08-02T13:58:12.543Z,6.80
2022-08-02T14:00:58.241Z,5.22
2022-08-02T14:04:07.374Z,7.43
2022-08-02T14:06:49.909Z,9.73
2022-08-02T14:09:40.801Z,4.63
2022-08-02T14:12:26.735Z,4.13
2022-08-02T14:15:12.494Z,7.15
2022-08-02T14:18:00.538Z,6.07
2022-08-02T14:20:47.088Z,4.40
2022-08-02T14:23:49.082Z,7.85
2022-08-02T14:26:36.992Z,6.47
2022-08-02T14:29:22.684Z,7.95
2022-08-02T14:32:08.524Z,7.05
2022-08-02T14:34:55.658Z,5.65
2022-08-02T14:37:41.250Z,9.10
2022-08-02T14:40:30.749Z,10.70
2022-08-02T14:43:36.173Z,8.95
2022-08-02T14:46:21.533Z,8.38
2022-08-02T14:49:09.389Z,7.03
2022-08-02T14:51:55.569Z,7.10
2022-08-02T14:54:43.183Z,8.50
2022-08-02T14:57:29.027Z,9.13
2022-08-02T15:00:18.015Z,7.10
2022-08-02T15:03:03.490Z,9.18
2022-08-02T15:05:49.295Z,11.75
2022-08-02T15:08:34.985Z,6.68
2022-08-02T15:11:20.421Z,6.97
2022-08-02T15:14:06.033Z,7.85
2022-08-02T15:16:57.525Z,11.13
2022-08-02T15:19:57.621Z,7.78
2022-08-02T15:22:46.029Z,9.60
2022-08-02T15:25:38.491Z,6.18
2022-08-02T15:28:29.385Z,4.68
2022-08-02T15:31:32.774Z,6.47
2022-08-02T15:34:19.241Z,5.72
2022-08-02T15:37:04.964Z,4.70
2022-08-02T15:39:50.428Z,5.25
2022-08-02T15:42:38.861Z,9.10
2022-08-02T15:45:27.741Z,7.00
2022-08-02T15:48:13.531Z,4.95
2022-08-02T15:51:00.193Z,4.88
2022-08-02T15:53:46.112Z,6.88
2022-08-02T15:56:35.340Z,5.82
2022-08-02T15:59:21.048Z,3.55
2022-08-02T16:02:07.045Z,6.93
2022-08-02T16:04:52.817Z,7.43
2022-08-02T16:07:41.039Z,4.00
2022-08-02T16:10:27.063Z,3.85
2022-08-02T16:13:31.401Z,4.68
2022-08-02T16:16:19.655Z,5.43
2022-08-02T16:19:47.653Z,4.60
2022-08-02T16:22:12.363Z,4.28
2022-08-02T16:25:01.452Z,4.03
2022-08-02T16:28:05.928Z,5.20
2022-08-02T16:31:05.030Z,4.82
2022-08-02T16:33:57.090Z,5.32
2022-08-02T16:36:44.821Z,10.30
2022-08-02T16:39:30.408Z,3.90
2022-08-02T16:42:16.772Z,4.13
2022-08-02T16:45:11.083Z,6.20
2022-08-02T16:48:03.572Z,9.50
2022-08-02T16:50:55.386Z,4.78
2022-08-02T16:54:00.589Z,7.78
2022-08-02T16:56:46.591Z,4.90
2022-08-02T16:59:42.787Z,5.45
2022-08-02T17:02:32.975Z,5.18
2022-08-02T17:05:18.913Z,5.85
2022-08-02T17:08:17.307Z,7.63
2022-08-02T17:11:04.090Z,3.60
2022-08-02T17:13:49.791Z,15.80
2022-08-02T17:16:38.241Z,6.88
2022-08-02T17:19:28.381Z,5.22
2022-08-02T17:22:21.477Z,9.02
2022-08-02T17:25:10.922Z,4.80
2022-08-02T17:27:56.947Z,6.28
2022-08-02T17:30:42.604Z,7.22
2022-08-02T17:33:30.926Z,5.35
2022-08-02T17:36:18.305Z,16.42
2022-08-02T17:39:05.847Z,6.68
2022-08-02T17:41:52.640Z,11.68
2022-08-02T17:44:38.681Z,8.63
2022-08-02T17:47:30.863Z,8.23
2022-08-02T17:50:17.523Z,5.82
2022-08-02T17:53:05.738Z,12.02
2022-08-02T17:55:51.387Z,4.97
2022-08-02T17:58:36.827Z,6.30
2022-08-02T18:01:49.207Z,3.80
2022-08-02T18:04:38.957Z,7.90
2022-08-02T18:07:25.071Z,5.20
2022-08-02T18:10:10.875Z,10.65
2022-08-02T18:12:57.471Z,7.32
2022-08-02T18:15:45.925Z,9.55
2022-08-02T18:18:31.402Z,5.20
2022-08-02T18:21:22.804Z,6.47
2022-08-02T18:24:09.106Z,23.70
2022-08-02T18:26:57.750Z,6.32
2022-08-02T18:29:43.152Z,6.40
2022-08-02T18:33:55.766Z,8.55
2022-08-02T18:35:38.533Z,6.10
2022-08-02T18:38:25.072Z,14.32
2022-08-02T18:41:13.150Z,7.60
2022-08-02T18:43:59.065Z,11.95
2022-08-02T18:46:46.195Z,13.15
2022-08-02T18:49:46.146Z,12.93
2022-08-02T18:52:32.687Z,11.63
2022-08-02T18:55:59.750Z,8.05
2022-08-02T18:58:29.305Z,10.55
2022-08-02T19:01:21.965Z,8.10
2022-08-02T19:04:27.183Z,16.27
2022-08-02T19:07:13.422Z,22.43
2022-08-02T19:10:01.351Z,12.38
2022-08-02T19:12:47.453Z,8.27
2022-08-02T19:15:40.517Z,13.98
2022-08-02T19:18:31.178Z,24.02
2022-08-02T19:22:17.496Z,13.90
2022-08-02T19:24:29.173Z,12.45
2022-08-02T19:27:15.532Z,12.52
2022-08-02T19:30:09.327Z,15.52
2022-08-02T19:32:59.855Z,15.98
2022-08-02T19:36:01.400Z,14.82
2022-08-02T19:38:54.045Z,14.15
2022-08-02T19:44:37.844Z,11.07
2022-08-02T19:47:26.513Z,13.55
2022-08-02T19:50:25.951Z,15.18
2022-08-02T19:53:11.939Z,14.55
2022-08-02T19:56:00.724Z,14.43
2022-08-02T19:58:48.625Z,13.85
2022-08-02T20:01:38.229Z,12.85
2022-08-02T20:04:26.140Z,14.05
2022-08-02T20:07:12.192Z,15.05
2022-08-02T20:10:11.072Z,15.23
2022-08-02T20:12:57.221Z,18.13
2022-08-02T20:15:56.405Z,13.52
2022-08-02T20:18:42.536Z,15.43
2022-08-02T20:21:36.288Z,9.65
2022-08-02T20:24:22.620Z,11.15
2022-08-02T20:27:16.998Z,17.70
2022-08-02T20:30:09.920Z,21.83
2022-08-02T20:33:02.516Z,15.98
2022-08-02T20:36:04.453Z,12.35
2022-08-02T20:38:50.369Z,15.45
2022-08-02T20:44:46.172Z,14.38
2022-08-02T20:47:39.738Z,8.80
2022-08-02T20:50:44.312Z,14.27
2022-08-02T20:53:35.588Z,12.68
2022-08-02T20:56:40.789Z,13.65
2022-08-02T20:59:27.787Z,14.60
2022-08-02T21:02:16.308Z,14.95
2022-08-02T21:08:17.501Z,14.32
2022-08-02T21:11:08.944Z,14.50
2022-08-02T21:14:06.613Z,13.10
2022-08-02T21:16:54.632Z,13.70
2022-08-02T21:19:44.392Z,16.92
2022-08-02T21:22:30.078Z,15.93
2022-08-02T21:25:15.970Z,13.65
2022-08-02T21:28:04.801Z,14.30
2022-08-02T21:30:50.481Z,13.27
2022-08-02T21:33:47.185Z,13.73
2022-08-02T21:39:28.326Z,14.20
2022-08-02T21:42:16.422Z,15.20
2022-08-02T21:45:16.970Z,7.35
2022-08-02T21:48:05.763Z,19.13
2022-08-02T21:50:54.074Z,18.63
2022-08-02T21:53:42.522Z,10.55
2022-08-02T21:56:28.672Z,8.70
2022-08-02T21:59:15.844Z,15.90
2022-08-02T22:02:02.216Z,13.65
2022-08-02T22:04:49.587Z,18.40
2022-08-02T22:07:38.341Z,18.63
2022-08-02T22:10:24.134Z,12.18
2022-08-02T22:13:14.523Z,11.60
2022-08-02T22:16:03.399Z,18.92
2022-08-02T22:18:51.481Z,12.30
2022-08-02T22:21:46.876Z,14.48
2022-08-02T22:24:40.995Z,9.73
2022-08-02T22:28:36.626Z,12.98
2022-08-02T22:30:31.855Z,13.13
2022-08-02T22:33:42.153Z,14.30
2022-08-02T22:36:43.126Z,10.15
2022-08-02T22:39:29.044Z,12.60
2022-08-02T22:42:14.572Z,15.00
2022-08-02T22:45:00.146Z,14.40
2022-08-02T22:47:51.021Z,13.10
2022-08-02T22:50:36.817Z,15.48
2022-08-02T22:53:35.309Z,11.23
2022-08-02T22:56:22.030Z,16.30
2022-08-02T22:58:56.095Z,17.85
2022-08-02T22:58:56.965Z,14.02
2022-08-02T23:02:03.087Z,12.02
2022-08-02T23:04:49.439Z,15.48
2022-08-02T23:07:38.806Z,8.75
2022-08-02T23:10:24.888Z,14.68
2022-08-02T23:13:10.606Z,14.68
2022-08-02T23:16:14.850Z,13.10
2022-08-02T23:19:18.652Z,19.05
2022-08-02T23:22:04.623Z,12.25
2022-08-02T23:24:50.672Z,6.40
2022-08-02T23:27:36.140Z,12.48
2022-08-02T23:30:21.603Z,17.65
2022-08-02T23:33:07.082Z,20.75
2022-08-02T23:35:52.672Z,17.55
2022-08-02T23:38:38.400Z,13.80
2022-08-02T23:41:30.074Z,11.52
2022-08-02T23:44:15.787Z,9.80
2022-08-02T23:47:02.897Z,11.23
2022-08-02T23:49:48.543Z,12.63
2022-08-02T23:52:34.012Z,12.18
2022-08-02T23:55:22.485Z,10.60
2022-08-02T23:58:07.954Z,15.10
